Time;durP1;ratioP1;P1;durP2;ratioP2;P2;SDS_P1;SDS_P2;PMS_P1;PMS_P2;Temp;Humidity;BMP_temperature;BMP_pressure;BME280_temperature;BME280_humidity;BME280_pressure;Samples;Min_cycle;Max_cycle;Signal;HPM_P1;HPM_P2
2021/12/06 05:02:12;;;;;;;;;4.00;3.00;;;;;9.87;63.97;101096.78;5210828;22;46196;-83
2021/12/06 05:04:40;;;;;;;;;2.00;2.00;;;;;10.00;64.07;101132.72;5017160;28;45799;-83
2021/12/06 05:07:19;;;;;;;;;4.33;4.33;;;;;10.01;64.16;101138.91;5018401;28;45390;-83
2021/12/06 05:09:45;;;;;;;;;4.67;4.00;;;;;9.18;63.96;101004.25;5024583;28;45321;-83
2021/12/06 05:12:13;;;;;;;;;3.00;3.00;;;;;9.86;63.94;101119.88;5025281;28;46366;-83
2021/12/06 05:14:40;;;;;;;;;3.33;2.00;;;;;9.80;64.04;101120.09;5024081;28;45503;-83
2021/12/06 05:17:06;;;;;;;;;3.67;3.67;;;;;9.64;64.14;101098.44;5037886;28;45574;-83
2021/12/06 05:19:32;;;;;;;;;2.33;2.33;;;;;9.79;64.23;101118.34;5031353;28;45324;-83
2021/12/06 05:21:58;;;;;;;;;4.00;3.33;;;;;9.89;64.08;101141.06;5029065;28;45568;-83
2021/12/06 05:24:23;;;;;;;;;5.00;2.67;;;;;9.27;64.76;101027.88;5033029;28;45529;-83
2021/12/06 05:26:49;;;;;;;;;4.33;3.00;;;;;9.93;64.26;101144.50;5022369;28;45388;-86
2021/12/06 05:29:23;;;;;;;;;4.33;4.00;;;;;9.56;64.60;101092.53;5033964;28;45418;-86
2021/12/06 05:31:55;;;;;;;;;3.00;3.00;;;;;9.59;64.49;101105.72;5018778;28;45980;-86
2021/12/06 05:34:28;;;;;;;;;4.00;3.00;;;;;9.71;64.53;101134.56;5018971;28;45293;-86
2021/12/06 05:36:53;;;;;;;;;6.33;4.67;;;;;9.47;64.06;101091.03;5034210;28;45375;-85
2021/12/06 05:39:19;;;;;;;;;4.00;4.00;;;;;9.48;64.58;101102.53;5019941;28;45386;-85
2021/12/06 05:41:44;;;;;;;;;6.67;2.67;;;;;9.47;63.93;101099.03;5028540;28;46507;-86
2021/12/06 05:44:10;;;;;;;;;3.67;2.67;;;;;9.57;64.25;101120.88;5023016;28;45467;-86
2021/12/06 05:46:35;;;;;;;;;3.33;3.33;;;;;9.55;64.03;101108.53;5030131;28;45652;-86
2021/12/06 05:49:01;;;;;;;;;6.00;3.67;;;;;9.52;64.23;101098.88;5022493;28;45653;-86
2021/12/06 05:51:26;;;;;;;;;4.33;2.67;;;;;9.82;64.43;101149.31;5038682;28;46334;-86
2021/12/06 05:53:51;;;;;;;;;5.67;5.67;;;;;9.46;64.39;101096.44;5033238;28;45479;-86
2021/12/06 05:56:17;;;;;;;;;5.67;4.00;;;;;9.08;64.25;101038.25;5023910;28;45502;-85
2021/12/06 05:58:42;;;;;;;;;6.00;6.00;;;;;9.71;64.65;101147.88;5016962;28;45569;-85
2021/12/06 06:01:09;;;;;;;;;3.00;2.00;;;;;9.66;64.25;101140.97;5038092;28;45372;-86
2021/12/06 06:03:34;;;;;;;;;7.67;7.67;;;;;9.05;64.34;101051.63;5026684;28;45495;-85
2021/12/06 06:06:00;;;;;;;;;7.67;7.67;;;;;9.39;64.48;101095.75;5029286;28;45411;-86
2021/12/06 06:08:25;;;;;;;;;9.00;6.00;;;;;9.93;64.37;101189.78;5035335;28;45360;-84
2021/12/06 06:10:51;;;;;;;;;8.00;5.00;;;;;9.42;63.68;101103.63;5019594;28;45965;-90
2021/12/06 06:13:18;;;;;;;;;6.67;6.67;;;;;9.94;64.25;101194.16;5038360;28;45395;-82
2021/12/06 06:15:44;;;;;;;;;4.33;4.33;;;;;9.60;63.84;101147.41;5038429;28;45244;-90
2021/12/06 06:18:10;;;;;;;;;4.67;4.67;;;;;9.00;63.64;101058.91;5027623;28;45480;-89
2021/12/06 06:20:50;;;;;;;;;6.33;3.67;;;;;9.94;63.63;101202.16;5033221;28;48402;-90
2021/12/06 06:23:15;;;;;;;;;6.00;4.33;;;;;9.13;64.03;101070.03;5036356;28;45999;-90
2021/12/06 06:25:41;;;;;;;;;5.33;4.33;;;;;9.44;63.87;101119.56;5026128;28;45505;-95
2021/12/06 06:28:07;;;;;;;;;7.33;5.00;;;;;8.31;63.62;100937.94;5019154;28;45683;-93
2021/12/06 06:30:42;;;;;;;;;6.33;6.33;;;;;8.92;63.82;101045.00;5019985;28;48111;-94
2021/12/06 06:33:08;;;;;;;;;4.00;4.00;;;;;9.62;63.46;101161.53;5020405;28;45460;-93
2021/12/06 06:35:39;;;;;;;;;7.00;7.00;;;;;9.56;63.40;101161.72;5022622;28;45390;-93
2021/12/06 06:38:06;;;;;;;;;7.00;6.33;;;;;9.54;63.15;101154.69;5027475;28;45603;-85
2021/12/06 06:40:31;;;;;;;;;5.00;5.00;;;;;9.30;63.27;101134.16;5022858;28;45500;-93
2021/12/06 06:42:57;;;;;;;;;5.00;5.00;;;;;9.20;63.69;101108.78;5017203;28;45417;-90
2021/12/06 06:45:22;;;;;;;;;6.00;6.00;;;;;9.17;63.35;101105.34;5016826;28;45332;-86
2021/12/06 06:47:54;;;;;;;;;5.00;5.00;;;;;9.03;63.58;101096.00;5026739;28;45487;-85
2021/12/06 06:50:23;;;;;;;;;5.00;5.00;;;;;9.74;63.78;101210.81;5018326;28;45527;-86
2021/12/06 06:52:50;;;;;;;;;7.33;5.00;;;;;9.19;63.73;101132.75;5018008;28;45365;-84
2021/12/06 06:55:16;;;;;;;;;9.67;8.00;;;;;9.57;64.34;101221.97;5017738;28;45352;-82
2021/12/06 06:57:43;;;;;;;;;9.00;8.00;;;;;9.55;64.35;101228.28;5017592;28;45490;-81
2021/12/06 07:00:13;;;;;;;;;16.67;16.00;;;;;9.52;64.51;101237.22;5016673;28;46008;-82
2021/12/06 07:02:39;;;;;;;;;10.67;10.67;;;;;9.48;64.36;101223.16;5015579;28;45404;-81
2021/12/06 07:05:06;;;;;;;;;8.67;7.00;;;;;9.32;64.08;101191.75;5015532;28;45485;-80
2021/12/06 07:07:32;;;;;;;;;10.00;7.67;;;;;9.54;64.22;101237.19;5014125;28;45676;-83
2021/12/06 07:09:58;;;;;;;;;7.67;7.67;;;;;9.54;64.58;101240.72;5016144;28;45443;-80
2021/12/06 07:12:23;;;;;;;;;6.00;6.00;;;;;9.58;64.23;101252.16;5014842;28;45685;-82
2021/12/06 07:14:48;;;;;;;;;11.67;7.00;;;;;9.56;64.72;101252.19;5016528;28;45457;-80
2021/12/06 07:17:15;;;;;;;;;9.33;8.33;;;;;9.35;64.50;101228.91;5016919;28;45467;-81
2021/12/06 07:19:40;;;;;;;;;6.00;6.00;;;;;9.17;64.60;101198.44;5016552;28;46252;-81
2021/12/06 07:22:06;;;;;;;;;7.00;6.00;;;;;9.41;64.48;101244.66;5016153;28;45644;-81
2021/12/06 07:24:32;;;;;;;;;8.67;7.00;;;;;9.36;65.14;101257.25;5016385;28;45480;-81
2021/12/06 07:26:58;;;;;;;;;9.33;8.33;;;;;9.23;64.69;101249.66;5016655;28;45472;-81
2021/12/06 07:29:23;;;;;;;;;12.33;10.00;;;;;9.02;64.75;101263.59;5015974;28;45912;-81
2021/12/06 07:31:49;;;;;;;;;10.33;9.00;;;;;8.74;65.24;101247.53;5016486;28;45447;-81
2021/12/06 07:34:15;;;;;;;;;9.67;9.33;;;;;8.51;65.85;101261.47;4999926;28;45373;-84
2021/12/06 07:36:41;;;;;;;;;19.67;18.67;;;;;8.28;66.26;101262.03;5016694;28;45472;-83
2021/12/06 07:39:07;;;;;;;;;16.33;14.00;;;;;8.09;68.20;101262.50;5016288;28;46064;-82
2021/12/06 07:41:33;;;;;;;;;13.00;11.33;;;;;8.11;67.85;101247.41;5016077;28;45353;-83
2021/12/06 07:43:59;;;;;;;;;18.67;16.00;;;;;8.44;67.78;101268.72;5014439;28;45493;-83
2021/12/06 07:46:25;;;;;;;;;17.67;15.67;;;;;8.57;67.38;101263.94;5031425;28;45507;-83
2021/12/06 07:48:52;;;;;;;;;16.67;13.67;;;;;8.54;67.44;101250.75;5015853;28;45513;-83
2021/12/06 07:51:26;;;;;;;;;16.67;12.67;;;;;8.69;67.39;101274.25;5015775;28;45389;-82
2021/12/06 07:53:51;;;;;;;;;19.67;17.33;;;;;8.68;66.78;101269.81;5015790;28;45453;-86
2021/12/06 07:56:18;;;;;;;;;10.00;9.00;;;;;8.04;67.50;101209.50;5015655;28;45625;-85
2021/12/06 07:58:44;;;;;;;;;14.33;14.00;;;;;7.87;69.60;101222.34;5016141;28;46167;-83
2021/12/06 08:01:10;;;;;;;;;9.33;8.00;;;;;8.44;69.73;101266.06;5009229;28;45751;-83
2021/12/06 08:03:37;;;;;;;;;10.00;10.00;;;;;8.66;68.81;101267.22;5010814;28;45404;-82
2021/12/06 08:06:03;;;;;;;;;14.67;13.33;;;;;8.47;68.03;101217.28;5034609;28;45735;-82
2021/12/06 08:08:31;;;;;;;;;14.67;11.33;;;;;8.98;68.34;101261.91;5015207;28;45610;-82
2021/12/06 08:11:04;;;;;;;;;14.33;11.00;;;;;9.04;67.80;101253.78;5020594;28;45555;-82
2021/12/06 08:13:32;;;;;;;;;11.00;10.00;;;;;9.04;66.96;101222.72;5018301;28;45510;-81
2021/12/06 08:16:03;;;;;;;;;13.67;9.00;;;;;9.22;66.98;101242.56;5014489;28;45637;-81
2021/12/06 08:18:29;;;;;;;;;16.00;14.33;;;;;9.43;66.85;101269.44;5016557;28;46814;-82
2021/12/06 08:20:56;;;;;;;;;17.67;16.33;;;;;9.37;66.53;101245.72;5019172;28;45501;-82
2021/12/06 08:23:23;;;;;;;;;13.00;12.00;;;;;9.63;65.88;101260.84;5016248;28;46661;-82
2021/12/06 08:25:50;;;;;;;;;10.67;9.67;;;;;9.75;65.73;101240.97;5018378;28;45748;-82
2021/12/06 08:28:17;;;;;;;;;12.33;11.00;;;;;9.65;65.73;101197.81;5018567;28;45528;-83
2021/12/06 08:30:44;;;;;;;;;20.33;18.67;;;;;9.91;65.08;101232.41;5017745;28;45565;-82
2021/12/06 08:33:10;;;;;;;;;20.00;18.67;;;;;10.05;64.96;101250.59;5019051;28;45462;-82
2021/12/06 08:35:40;;;;;;;;;15.67;14.00;;;;;10.14;65.16;101257.41;5025377;28;45647;-82
2021/12/06 08:38:07;;;;;;;;;17.00;15.00;;;;;9.85;65.18;101197.13;5027424;28;47100;-91
2021/12/06 08:40:33;;;;;;;;;18.33;16.00;;;;;9.57;64.66;101138.63;5036396;28;45572;-92
2021/12/06 08:42:59;;;;;;;;;10.00;8.67;;;;;10.07;64.49;101198.16;5025762;28;45596;-91
2021/12/06 08:45:26;;;;;;;;;9.00;9.00;;;;;10.47;64.47;101257.22;5027137;28;45620;-86
2021/12/06 08:47:53;;;;;;;;;20.33;16.00;;;;;10.20;63.84;101200.41;5024538;28;46126;-85
2021/12/06 08:50:22;;;;;;;;;70.25;52.75;;;;;10.61;63.52;101248.75;5022262;28;45411;-86
2021/12/06 08:52:48;;;;;;;;;57.00;44.50;;;;;10.13;63.99;101152.66;5017865;28;45435;-86
2021/12/06 08:55:14;;;;;;;;;10.33;10.33;;;;;10.33;62.98;101178.63;5030788;28;45540;-86
2021/12/06 08:57:40;;;;;;;;;12.67;12.67;;;;;10.39;62.63;101188.19;5026245;28;48844;-86
2021/12/06 09:00:14;;;;;;;;;63.00;49.00;;;;;9.69;62.99;101058.38;5026650;28;45462;-86
2021/12/06 09:02:40;;;;;;;;;45.50;36.00;;;;;10.75;62.46;101225.13;5019068;28;45397;-85
2021/12/06 09:05:08;;;;;;;;;11.67;11.00;;;;;10.07;62.43;101104.09;5022053;28;45586;-85
2021/12/06 09:07:34;;;;;;;;;9.67;8.33;;;;;10.63;62.46;101215.78;5032134;28;46646;-86
2021/12/06 09:10:00;;;;;;;;;10.00;10.00;;;;;10.47;62.04;101183.47;5023963;28;45673;-86
2021/12/06 09:12:28;;;;;;;;;12.67;10.67;;;;;10.82;62.15;101252.44;5032381;28;45637;-84
2021/12/06 09:14:57;;;;;;;;;10.33;8.00;;;;;10.52;61.85;101207.28;5024559;28;45479;-85
2021/12/06 09:17:23;;;;;;;;;7.67;7.67;;;;;10.78;61.19;101246.31;5031632;28;45483;-84
2021/12/06 09:19:49;;;;;;;;;9.33;7.33;;;;;10.78;61.22;101259.66;5022062;28;45406;-84
2021/12/06 09:22:16;;;;;;;;;7.00;6.00;;;;;10.26;60.56;101186.88;5030950;28;45533;-85
2021/12/06 09:24:42;;;;;;;;;8.00;6.00;;;;;9.83;60.46;101103.13;5024460;28;45486;-85
2021/12/06 09:27:08;;;;;;;;;7.00;7.00;;;;;10.73;60.02;101241.16;5026992;28;45393;-85
2021/12/06 09:29:36;;;;;;;;;6.00;6.00;;;;;10.72;60.38;101241.19;5027847;28;45437;-86
2021/12/06 09:32:10;;;;;;;;;6.00;6.00;;;;;10.04;60.21;101139.66;5026870;28;45415;-85
2021/12/06 09:34:39;;;;;;;;;8.67;8.67;;;;;10.70;60.72;101254.59;5023618;28;45583;-85
2021/12/06 09:37:05;;;;;;;;;11.33;8.67;;;;;10.10;60.71;101158.09;5037487;28;45793;-86
2021/12/06 09:39:32;;;;;;;;;10.00;10.00;;;;;10.12;60.57;101148.25;5027671;28;45594;-86
2021/12/06 09:41:57;;;;;;;;;7.33;7.33;;;;;10.18;60.42;101149.81;5019925;28;45579;-86
2021/12/06 09:44:23;;;;;;;;;10.00;8.67;;;;;9.94;60.11;101092.97;5025035;28;45522;-85
2021/12/06 09:46:49;;;;;;;;;11.00;11.00;;;;;10.38;60.40;101159.81;5026005;28;46144;-86
2021/12/06 09:49:18;;;;;;;;;9.00;9.00;;;;;10.71;59.79;101229.66;5024893;28;45929;-85
2021/12/06 09:51:51;;;;;;;;;10.00;10.00;;;;;10.47;59.58;101177.28;5019752;28;45433;-84
2021/12/06 09:54:26;;;;;;;;;11.00;10.00;;;;;10.36;59.57;101159.00;5030298;28;45407;-86
2021/12/06 09:56:53;;;;;;;;;14.00;10.33;;;;;10.35;59.12;101157.28;5019675;28;47603;-86
2021/12/06 09:59:21;;;;;;;;;10.67;9.00;;;;;10.37;59.61;101151.88;5028262;28;45480;-86
2021/12/06 10:01:50;;;;;;;;;8.33;7.33;;;;;10.89;59.05;101241.47;5024674;28;45367;-84
2021/12/06 10:04:21;;;;;;;;;7.00;7.00;;;;;10.92;59.17;101267.16;5026129;28;45500;-85
2021/12/06 10:06:48;;;;;;;;;11.67;9.00;;;;;10.94;59.19;101238.63;5022005;28;46379;-85
2021/12/06 10:09:15;;;;;;;;;8.67;8.67;;;;;10.93;59.08;101248.44;5035872;28;45350;-86
2021/12/06 10:11:40;;;;;;;;;11.67;10.33;;;;;10.28;58.55;101121.97;5035480;28;45510;-86
2021/12/06 10:14:06;;;;;;;;;10.33;8.67;;;;;10.44;58.81;101138.28;5025728;28;45434;-85
2021/12/06 10:16:32;;;;;;;;;8.00;8.00;;;;;10.98;58.45;101222.47;5035378;28;45527;-86
2021/12/06 10:18:59;;;;;;;;;8.33;8.33;;;;;10.17;58.05;101078.84;5024689;28;45600;-86
2021/12/06 10:21:27;;;;;;;;;9.00;8.00;;;;;11.04;58.84;101205.34;5026820;28;45412;-86
2021/12/06 10:23:54;;;;;;;;;9.67;8.00;;;;;10.89;57.97;101185.47;5026615;28;46002;-85
2021/12/06 10:26:23;;;;;;;;;11.00;11.00;;;;;10.65;57.86;101141.94;5026354;28;47085;-85
2021/12/06 10:50:19;;;;;;;;;4.00;4.00;;;;;9.79;59.25;101008.34;6116805;22;1568164;-89
2021/12/06 10:52:54;;;;;;;;;13.00;12.00;;;;;10.42;59.01;101096.59;6130397;23;45266;-89
2021/12/06 10:55:23;;;;;;;;;10.00;8.33;;;;;10.95;59.14;101141.69;6130832;23;45324;-89
2021/12/06 10:57:55;;;;;;;;;7.00;7.00;;;;;10.46;58.30;101056.47;6154877;23;45473;-88
2021/12/06 11:00:33;;;;;;;;;8.33;7.00;;;;;10.96;58.83;101140.75;6130482;23;46781;-89
2021/12/06 11:02:58;;;;;;;;;8.00;6.67;;;;;10.41;58.81;101060.25;6132314;23;45318;-89
2021/12/06 11:05:26;;;;;;;;;9.00;7.00;;;;;10.85;58.69;101134.97;6132702;23;45531;-89
2021/12/06 11:08:11;;;;;;;;;10.33;8.67;;;;;10.56;58.90;101073.84;6132427;23;45261;-88
2021/12/06 11:10:45;;;;;;;;;8.67;8.67;;;;;10.50;58.68;101055.41;6132297;23;46673;-88
2021/12/06 11:13:16;;;;;;;;;7.67;7.67;;;;;10.48;58.38;101043.94;6132239;23;45333;-88
2021/12/06 11:16:01;;;;;;;;;14.33;11.00;;;;;10.57;59.12;101062.25;6132508;23;45312;-88
2021/12/06 11:18:37;;;;;;;;;9.00;7.67;;;;;11.08;58.75;101132.28;6155448;23;45424;-88
2021/12/06 11:21:12;;;;;;;;;9.00;9.00;;;;;11.09;58.27;101131.34;6131999;23;46567;-87
2021/12/06 11:24:05;;;;;;;;;9.67;8.00;;;;;10.90;58.64;101101.84;6131969;23;45407;-89
2021/12/06 11:26:34;;;;;;;;;11.67;10.67;;;;;10.96;58.38;101106.97;6130781;23;45379;-90
2021/12/06 11:29:06;;;;;;;;;19.67;16.00;;;;;11.06;58.46;101125.25;6154006;23;45500;-87
2021/12/06 11:31:32;;;;;;;;;9.00;9.00;;;;;10.80;58.39;101065.81;6128940;23;47091;-93
2021/12/06 11:34:02;;;;;;;;;9.00;9.00;;;;;10.17;58.25;100961.66;6154666;23;45499;-90
2021/12/06 11:36:31;;;;;;;;;4.00;4.00;;;;;10.56;57.82;101009.03;6130337;23;45381;-94
2021/12/06 11:39:11;;;;;;;;;7.00;6.00;;;;;11.11;58.28;101100.13;6128520;23;45305;-87
2021/12/06 11:41:38;;;;;;;;;6.33;6.33;;;;;11.16;58.21;101092.81;6130594;23;46376;-88
2021/12/06 11:44:27;;;;;;;;;8.33;6.00;;;;;11.14;57.82;101084.03;6130739;23;45323;-89
2021/12/06 11:47:08;;;;;;;;;6.33;6.33;;;;;10.72;57.88;101023.47;6129388;23;45338;-90
2021/12/06 11:49:42;;;;;;;;;6.00;6.00;;;;;11.13;58.13;101084.06;6148873;23;45615;-88
2021/12/06 11:52:13;;;;;;;;;11.33;10.00;;;;;11.17;58.14;101093.69;6151302;23;47405;-94
2021/12/06 11:54:54;;;;;;;;;6.33;5.67;;;;;10.10;58.19;100901.56;6154145;23;45415;-91
2021/12/06 11:57:31;;;;;;;;;7.33;5.33;;;;;10.32;57.92;100944.22;6150831;23;45377;-92
2021/12/06 12:00:11;;;;;;;;;7.00;7.00;;;;;10.11;57.88;100888.19;6126171;23;45306;-95
2021/12/06 12:02:45;;;;;;;;;8.00;6.33;;;;;10.37;57.91;100917.41;6128338;23;47963;-95
2021/12/06 12:05:19;;;;;;;;;5.67;4.00;;;;;10.83;57.04;100982.19;6155013;23;45913;-94
2021/12/06 12:08:13;;;;;;;;;8.00;5.00;;;;;11.41;57.34;101067.78;6154662;23;45374;-96
2021/12/06 12:10:54;;;;;;;;;5.67;5.33;;;;;10.97;56.98;100993.13;6127324;23;45405;-96
2021/12/06 12:13:38;;;;;;;;;6.00;4.67;;;;;9.95;57.26;100823.16;6134942;23;47029;-96
2021/12/06 12:16:10;;;;;;;;;6.00;6.00;;;;;10.83;57.62;100947.50;6135738;23;45259;-91
2021/12/06 12:18:39;;;;;;;;;8.67;5.67;;;;;11.07;57.50;100985.63;6128074;23;45451;-93
2021/12/06 12:21:06;;;;;;;;;9.00;9.00;;;;;11.41;57.51;101027.75;6153682;23;45554;-91
2021/12/06 12:23:33;;;;;;;;;6.67;6.67;;;;;10.87;57.01;100943.78;6155483;23;46492;-95
2021/12/06 12:26:10;;;;;;;;;6.00;6.00;;;;;10.58;57.34;100876.53;6152679;23;45552;-94
2021/12/06 12:28:49;;;;;;;;;6.00;6.00;;;;;11.56;56.97;101032.41;6152528;23;45275;-90
2021/12/06 12:31:15;;;;;;;;;7.00;5.67;;;;;11.65;57.27;101054.34;6150675;23;45580;-90
2021/12/06 12:33:41;;;;;;;;;8.00;8.00;;;;;11.66;56.96;101053.38;6150773;23;47030;-90
2021/12/06 12:36:13;;;;;;;;;4.33;4.33;;;;;11.25;57.26;100968.84;6153457;23;45661;-90
2021/12/06 12:38:42;;;;;;;;;7.00;4.33;;;;;11.16;57.08;100942.56;6125110;23;45438;-91
2021/12/06 12:41:12;;;;;;;;;3.67;3.67;;;;;11.32;56.61;100943.63;6154674;23;45452;-94
2021/12/06 12:43:44;;;;;;;;;3.67;3.00;;;;;11.23;56.27;100932.47;6153196;23;47358;-93
2021/12/06 12:46:14;;;;;;;;;5.00;5.00;;;;;11.82;56.34;101006.38;6153279;23;45324;-92
2021/12/06 12:48:47;;;;;;;;;7.00;5.67;;;;;11.32;56.52;100913.41;6152639;23;45392;-95
2021/12/06 12:51:22;;;;;;;;;4.33;4.33;;;;;11.82;56.15;101001.03;6155888;23;45254;-93
2021/12/06 12:53:54;;;;;;;;;6.00;4.67;;;;;11.89;56.19;100999.00;6127233;23;47263;-90
2021/12/06 12:56:23;;;;;;;;;3.00;3.00;;;;;11.25;56.36;100903.94;6151985;23;45783;-92
2021/12/06 12:58:51;;;;;;;;;5.00;5.00;;;;;11.53;56.29;100927.59;6127363;23;45309;-90
2021/12/06 13:01:17;;;;;;;;;5.00;3.33;;;;;11.26;55.51;100884.31;6126091;23;45568;-90
2021/12/06 13:03:54;;;;;;;;;5.00;4.00;;;;;11.86;55.62;100972.41;6151116;23;48038;-90
2021/12/06 13:06:38;;;;;;;;;4.00;3.00;;;;;11.73;55.53;100954.28;6151919;23;45257;-90
2021/12/06 13:09:15;;;;;;;;;6.00;4.67;;;;;11.27;55.51;100878.06;6151061;23;45424;-90
2021/12/06 13:11:48;;;;;;;;;5.00;5.00;;;;;11.75;56.09;100943.50;6131395;23;45555;-93
2021/12/06 13:14:36;;;;;;;;;4.33;4.33;;;;;11.74;56.05;100937.31;6151787;23;47553;-87
2021/12/06 13:17:07;;;;;;;;;6.33;6.33;;;;;11.80;56.19;100926.34;6153588;23;45274;-88
2021/12/06 13:20:05;;;;;;;;;46.50;37.75;;;;;11.34;55.65;100848.34;6153219;23;45317;-91
2021/12/06 13:22:32;;;;;;;;;13.00;12.00;;;;;11.61;55.74;100880.94;6152042;23;45526;-93
2021/12/06 13:25:09;;;;;;;;;6.33;5.00;;;;;11.43;56.12;100839.06;6153173;23;46094;-92
2021/12/06 13:27:40;;;;;;;;;4.00;4.00;;;;;11.27;55.25;100812.22;6151071;23;45484;-91
2021/12/06 13:30:27;;;;;;;;;4.67;4.67;;;;;11.26;55.67;100810.50;6152225;23;45475;-93
2021/12/06 13:33:03;;;;;;;;;4.00;4.00;;;;;11.04;55.82;100772.38;6152570;23;45322;-92
2021/12/06 13:35:38;;;;;;;;;7.00;4.33;;;;;11.67;55.96;100878.91;6152731;23;45506;-92
2021/12/06 13:38:06;;;;;;;;;5.00;4.00;;;;;11.17;55.74;100806.44;6151644;23;46080;-91
2021/12/06 13:40:33;;;;;;;;;4.00;4.00;;;;;11.04;55.88;100759.91;6152700;23;45383;-93
2021/12/06 13:43:12;;;;;;;;;5.33;5.33;;;;;11.09;55.64;100767.69;6152557;23;45338;-91
2021/12/06 13:45:42;;;;;;;;;4.00;4.00;;;;;11.68;55.77;100854.81;6125696;23;47922;-92
2021/12/06 13:48:18;;;;;;;;;3.33;3.33;;;;;11.44;55.74;100827.44;6125906;23;45843;-90
2021/12/06 13:50:45;;;;;;;;;4.00;3.00;;;;;10.89;55.25;100745.47;6153067;23;45353;-91
2021/12/06 13:53:23;;;;;;;;;4.00;4.00;;;;;11.66;55.30;100855.81;6151425;23;45306;-91
2021/12/06 13:55:50;;;;;;;;;4.00;4.00;;;;;11.08;55.67;100777.50;6150813;23;47034;-90
2021/12/06 13:58:16;;;;;;;;;4.00;2.00;;;;;10.93;55.25;100767.50;6150690;23;45969;-89
2021/12/06 14:00:47;;;;;;;;;3.33;2.00;;;;;11.56;55.17;100868.72;6150733;23;45411;-90
2021/12/06 14:03:17;;;;;;;;;4.00;2.00;;;;;11.29;55.05;100823.69;6151488;23;45508;-91
2021/12/06 14:05:51;;;;;;;;;3.67;2.00;;;;;10.96;54.99;100768.25;6150732;23;46910;-90
2021/12/06 14:08:23;;;;;;;;;3.67;3.67;;;;;11.51;54.17;100854.72;6152599;23;45424;-87
2021/12/06 14:10:53;;;;;;;;;4.67;1.00;;;;;11.09;54.71;100807.72;6155241;23;45235;-89
2021/12/06 14:13:19;;;;;;;;;2.00;2.00;;;;;10.70;54.54;100764.09;6134632;23;45291;-93
2021/12/06 14:18:11;;;;;;;;;3.00;2.00;;;;;11.31;54.49;100856.50;6154023;23;45401;-85
2021/12/06 14:20:37;;;;;;;;;3.67;2.00;;;;;10.49;54.62;100723.25;6157380;23;45251;-86
2021/12/06 14:23:06;;;;;;;;;2.00;2.00;;;;;11.04;54.61;100796.38;6153511;23;45202;-85
2021/12/06 14:25:31;;;;;;;;;3.00;3.00;;;;;11.06;55.25;100789.19;6153140;23;46518;-85
2021/12/06 14:27:57;;;;;;;;;2.00;2.00;;;;;10.96;55.50;100759.41;6150992;23;45486;-86
2021/12/06 14:30:25;;;;;;;;;5.00;5.00;;;;;10.27;55.30;100632.69;6153104;23;45255;-86
2021/12/06 14:32:52;;;;;;;;;2.33;2.33;;;;;10.80;54.61;100723.69;6151243;23;45497;-89
2021/12/06 14:35:19;;;;;;;;;5.00;2.67;;;;;11.10;57.00;100791.66;6150755;23;47357;-87
2021/12/06 14:37:44;;;;;;;;;1.67;1.67;;;;;10.80;56.40;100726.38;6126011;23;45480;-87
2021/12/06 14:40:12;;;;;;;;;8.00;5.00;;;;;11.02;57.26;100763.56;6152393;23;45294;-87
2021/12/06 14:42:41;;;;;;;;;4.33;2.67;;;;;10.81;57.21;100728.06;6151616;23;45447;-90
2021/12/06 14:45:07;;;;;;;;;2.00;2.00;;;;;11.06;57.53;100791.84;6129644;23;48076;-88
2021/12/06 14:47:38;;;;;;;;;3.67;3.00;;;;;10.66;58.67;100727.84;6152893;23;45123;-91
2021/12/06 14:50:22;;;;;;;;;2.00;2.00;;;;;10.89;58.94;100774.81;6153251;23;45330;-85
2021/12/06 14:52:50;;;;;;;;;5.67;2.33;;;;;10.68;59.80;100738.44;6153512;23;45329;-87
2021/12/06 14:55:41;;;;;;;;;2.67;2.67;;;;;10.82;59.36;100753.81;6126114;23;47013;-90
2021/12/06 14:58:13;;;;;;;;;4.33;4.33;;;;;10.36;59.91;100671.44;6153353;23;45301;-89
2021/12/06 15:00:46;;;;;;;;;2.00;2.00;;;;;10.67;59.87;100739.34;6153011;23;45340;-89
2021/12/06 15:03:13;;;;;;;;;2.50;2.50;;;;;10.33;59.98;100695.53;6143078;23;45441;-87
2021/12/06 15:05:43;;;;;;;;;4.33;3.00;;;;;9.78;60.38;100605.53;6152975;23;45383;-88
2021/12/06 15:08:21;;;;;;;;;3.00;3.00;;;;;10.35;60.87;100715.00;6152408;23;45384;-88
2021/12/06 15:10:59;;;;;;;;;4.00;4.00;;;;;10.59;60.17;100755.69;6150870;23;45476;-88
2021/12/06 15:13:27;;;;;;;;;3.00;3.00;;;;;9.92;60.88;100659.06;6153335;23;45310;-88
2021/12/06 15:15:56;;;;;;;;;3.00;2.00;;;;;9.74;60.69;100625.25;6125857;23;48219;-89
2021/12/06 15:18:26;;;;;;;;;2.00;2.00;;;;;9.81;60.41;100661.31;6152564;23;45324;-94
2021/12/06 15:20:52;;;;;;;;;2.00;2.00;;;;;10.47;60.29;100772.22;6129954;23;45309;-93
2021/12/06 15:23:27;;;;;;;;;3.00;3.00;;;;;9.58;60.13;100616.19;6156268;23;45232;-93
2021/12/06 15:25:55;;;;;;;;;2.00;2.00;;;;;9.61;60.51;100634.66;6153493;23;47125;-91
2021/12/06 15:28:26;;;;;;;;;4.00;4.00;;;;;10.33;61.10;100757.69;6155351;23;45265;-87
2021/12/06 15:30:52;;;;;;;;;3.33;3.33;;;;;9.93;61.39;100686.56;6155561;23;45288;-83
2021/12/06 15:33:19;;;;;;;;;3.00;3.00;;;;;10.51;62.35;100776.47;6154147;23;45735;-83
2021/12/06 15:35:51;;;;;;;;;5.00;4.00;;;;;10.54;61.96;100758.56;6153085;23;46163;-81
2021/12/06 15:38:24;;;;;;;;;6.67;4.67;;;;;10.80;61.74;100783.22;6149955;23;45361;-81
2021/12/06 15:41:01;;;;;;;;;4.00;4.00;;;;;10.88;61.93;100791.72;6152677;23;45381;-80
2021/12/06 15:43:31;;;;;;;;;4.67;3.67;;;;;10.66;61.27;100751.81;6152635;23;45381;-82
2021/12/06 15:45:58;;;;;;;;;2.00;2.00;;;;;10.97;61.10;100793.13;6152739;23;46060;-83
2021/12/06 15:48:27;;;;;;;;;5.33;4.00;;;;;10.78;60.36;100755.75;6152082;23;45488;-81
2021/12/06 15:50:54;;;;;;;;;3.33;2.33;;;;;10.44;60.87;100775.88;6151324;23;45386;-81
2021/12/06 15:53:22;;;;;;;;;2.00;2.00;;;;;10.60;61.58;100794.72;6156575;23;45504;-92
2021/12/06 15:55:53;;;;;;;;;1.00;1.00;;;;;10.16;60.12;100709.56;6154437;23;47179;-91
2021/12/06 15:58:20;;;;;;;;;2.67;1.00;;;;;9.56;60.49;100628.69;6156009;23;45582;-94
2021/12/06 16:00:56;;;;;;;;;2.67;1.00;;;;;10.59;60.31;100784.16;6155502;23;45239;-90
2021/12/06 16:03:28;;;;;;;;;1.33;1.00;;;;;10.49;60.35;100789.00;6155662;23;45294;-89
2021/12/06 16:05:57;;;;;;;;;2.33;2.33;;;;;10.36;61.09;100801.97;6157156;23;46227;-93
2021/12/06 16:08:23;;;;;;;;;6.67;2.67;;;;;8.64;61.31;100509.16;6127475;23;46152;-93
2021/12/06 16:10:52;;;;;;;;;3.00;3.00;;;;;9.94;61.60;100699.78;6153861;23;45184;-88
2021/12/06 16:13:21;;;;;;;;;4.00;1.33;;;;;8.76;63.32;100504.31;6153513;23;45278;-88
2021/12/06 16:15:51;;;;;;;;;3.00;0.00;;;;;8.45;63.27;100437.31;6150798;23;46998;-90
2021/12/06 16:18:23;;;;;;;;;4.00;3.00;;;;;8.14;63.26;100395.13;6152572;23;45407;-91
2021/12/06 16:21:01;;;;;;;;;3.00;1.00;;;;;9.32;62.77;100590.63;6154166;23;45270;-88
2021/12/06 16:23:42;;;;;;;;;3.67;1.33;;;;;9.06;63.36;100572.16;6152649;23;45520;-86
2021/12/06 16:26:15;;;;;;;;;3.67;2.00;;;;;9.55;63.99;100654.41;6150599;23;47438;-86
2021/12/06 16:28:53;;;;;;;;;2.00;2.00;;;;;9.54;64.08;100668.66;6154858;23;45395;-89
2021/12/06 16:31:22;;;;;;;;;2.00;2.00;;;;;8.99;64.93;100578.66;6156443;23;45115;-93
2021/12/06 16:33:52;;;;;;;;;2.00;2.00;;;;;9.59;64.50;100647.16;6154961;23;45297;-92
2021/12/06 16:36:34;;;;;;;;;3.00;3.00;;;;;9.59;63.85;100657.81;6153416;23;47236;-89
2021/12/06 16:39:09;;;;;;;;;5.67;4.00;;;;;9.49;64.38;100642.22;6153825;23;45349;-90
2021/12/06 16:41:44;;;;;;;;;2.33;2.00;;;;;8.72;64.10;100522.16;6151595;23;45436;-90
2021/12/06 16:44:19;;;;;;;;;2.00;2.00;;;;;9.52;64.45;100647.41;6153250;23;45329;-84
2021/12/06 16:46:49;;;;;;;;;2.67;2.00;;;;;9.37;64.49;100632.09;6152662;23;45894;-88
2021/12/06 16:49:24;;;;;;;;;4.67;2.33;;;;;9.46;64.82;100646.81;6152595;23;45302;-83
2021/12/06 16:51:49;;;;;;;;;2.00;2.00;;;;;9.55;65.38;100635.78;6154022;23;45261;-84
2021/12/06 16:54:27;;;;;;;;;4.33;2.00;;;;;9.58;64.48;100627.69;6151967;23;45412;-83
2021/12/06 16:56:58;;;;;;;;;2.00;2.00;;;;;9.33;64.14;100597.69;6153269;23;46275;-83
2021/12/06 16:59:23;;;;;;;;;2.67;2.67;;;;;9.17;64.13;100581.50;6150929;23;45364;-85
2021/12/06 17:01:50;;;;;;;;;6.00;4.00;;;;;9.47;64.55;100627.25;6153197;23;45250;-82